Time;durP1;ratioP1;P1;durP2;ratioP2;P2;SDS_P1;SDS_P2;PMS_P1;PMS_P2;Temp;Humidity;BMP_temperature;BMP_pressure;BME280_temperature;BME280_humidity;BME280_pressure;Samples;Min_cycle;Max_cycle;Signal;HPM_P1;HPM_P2
2022/01/01 00:00:16;;;;;;;0.57;0.57;;;0.40;99.90;;;;;;5071324;28;20197;-77
2022/01/01 00:02:42;;;;;;;0.80;0.80;;;0.40;99.90;;;;;;5053042;28;20197;-76
2022/01/01 00:05:10;;;;;;;0.65;0.65;;;0.40;99.90;;;;;;5053180;28;20197;-77
2022/01/01 00:07:38;;;;;;;0.70;0.70;;;0.40;99.90;;;;;;5072092;28;20224;-77
2022/01/01 00:10:05;;;;;;;0.60;0.60;;;0.20;99.90;;;;;;5054425;28;20287;-76
2022/01/01 00:12:30;;;;;;;0.60;0.60;;;0.20;99.90;;;;;;5068227;28;20620;-77
2022/01/01 00:14:56;;;;;;;0.60;0.60;;;0.20;99.90;;;;;;5071731;28;20283;-77
2022/01/01 00:17:22;;;;;;;0.63;0.63;;;0.10;99.90;;;;;;5053542;28;20208;-77
2022/01/01 00:19:47;;;;;;;0.80;0.80;;;0.10;99.90;;;;;;5070937;28;20204;-77
2022/01/01 00:22:13;;;;;;;0.70;0.70;;;0.00;99.90;;;;;;5059945;28;20201;-77
2022/01/01 00:24:39;;;;;;;0.70;0.70;;;0.00;99.90;;;;;;5054688;28;20207;-78
2022/01/01 00:27:04;;;;;;;0.65;0.65;;;-0.10;99.90;;;;;;5056910;28;20568;-77
2022/01/01 00:29:30;;;;;;;0.70;0.70;;;-0.10;99.90;;;;;;5068770;28;20204;-77
2022/01/01 00:31:56;;;;;;;0.85;0.85;;;-0.10;99.90;;;;;;5064053;28;20211;-77
2022/01/01 00:34:22;;;;;;;0.63;0.63;;;-0.10;99.90;;;;;;5071305;28;20298;-77
2022/01/01 00:36:48;;;;;;;0.70;0.70;;;-0.10;99.90;;;;;;5054619;28;20671;-77
2022/01/01 00:39:14;;;;;;;0.60;0.60;;;-0.10;99.90;;;;;;5054050;28;20224;-77
2022/01/01 00:41:43;;;;;;;0.70;0.70;;;-0.10;99.90;;;;;;5059001;28;20270;-77
2022/01/01 00:44:08;;;;;;;0.60;0.60;;;-0.20;99.90;;;;;;5049933;28;20393;-77
2022/01/01 00:46:34;;;;;;;0.95;0.93;;;-0.20;99.90;;;;;;5053210;28;20212;-77
2022/01/01 00:48:59;;;;;;;0.70;0.70;;;-0.20;99.90;;;;;;5070174;28;20204;-77
2022/01/01 00:51:26;;;;;;;0.60;0.60;;;-0.30;99.90;;;;;;5059436;28;20209;-77
2022/01/01 00:53:51;;;;;;;0.55;0.55;;;-0.30;99.90;;;;;;5060072;28;20200;-77
2022/01/01 00:56:17;;;;;;;0.60;0.60;;;-0.30;99.90;;;;;;5058425;28;20212;-77
2022/01/01 00:58:43;;;;;;;0.70;0.70;;;-0.30;99.90;;;;;;5070180;28;20204;-78
2022/01/01 01:01:09;;;;;;;0.70;0.70;;;-0.30;99.90;;;;;;5054266;28;20229;-77
2022/01/01 01:03:35;;;;;;;0.60;0.60;;;-0.30;99.90;;;;;;5069974;28;20246;-77
2022/01/01 01:06:01;;;;;;;0.57;0.57;;;-0.30;99.90;;;;;;5059969;28;20204;-77
2022/01/01 01:08:27;;;;;;;0.63;0.63;;;-0.30;99.90;;;;;;5057615;28;20204;-77
2022/01/01 01:10:56;;;;;;;0.70;0.70;;;-0.30;99.90;;;;;;5056149;28;20295;-77
2022/01/01 01:13:22;;;;;;;0.70;0.70;;;-0.30;99.90;;;;;;5056803;28;20702;-78
2022/01/01 01:15:48;;;;;;;0.70;0.70;;;-0.30;99.90;;;;;;5075172;28;20216;-77
2022/01/01 01:18:14;;;;;;;0.60;0.60;;;-0.30;99.90;;;;;;5057351;28;20243;-77
2022/01/01 01:20:40;;;;;;;0.70;0.70;;;-0.30;99.90;;;;;;5075239;28;20578;-78
2022/01/01 01:23:06;;;;;;;0.70;0.70;;;-0.30;99.90;;;;;;5074124;28;20695;-77
2022/01/01 01:25:37;;;;;;;0.70;0.70;;;-0.30;99.90;;;;;;5074080;28;20287;-77
2022/01/01 01:28:07;;;;;;;0.70;0.70;;;-0.40;99.90;;;;;;5057150;28;20205;-77
2022/01/01 01:30:34;;;;;;;0.70;0.70;;;-0.40;99.90;;;;;;5074263;28;20239;-77
2022/01/01 01:32:59;;;;;;;0.80;0.80;;;-0.40;99.90;;;;;;5074873;28;20220;-77
2022/01/01 01:35:25;;;;;;;0.70;0.70;;;-0.50;99.90;;;;;;5073651;28;20201;-76
2022/01/01 01:37:51;;;;;;;0.80;0.80;;;-0.50;99.90;;;;;;5057925;28;20219;-77
2022/01/01 01:40:16;;;;;;;0.80;0.80;;;-0.50;99.90;;;;;;5065838;28;20204;-77
2022/01/01 01:42:44;;;;;;;0.70;0.70;;;-0.60;99.90;;;;;;5059438;28;20247;-77
2022/01/01 01:45:15;;;;;;;0.95;0.95;;;-0.60;99.90;;;;;;5073445;28;20732;-77
2022/01/01 01:47:41;;;;;;;0.77;0.77;;;-0.70;99.90;;;;;;5073262;28;20544;-77
2022/01/01 01:50:11;;;;;;;0.75;0.75;;;-0.70;99.90;;;;;;5056391;28;20200;-77
2022/01/01 01:52:39;;;;;;;0.70;0.70;;;-0.70;99.90;;;;;;5056261;28;20323;-77
2022/01/01 01:55:10;;;;;;;0.80;0.80;;;-0.70;99.90;;;;;;5073647;28;20307;-77
2022/01/01 01:57:39;;;;;;;0.80;0.80;;;-0.80;99.90;;;;;;5073192;28;20235;-76
2022/01/01 02:00:12;;;;;;;0.70;0.70;;;-0.70;99.90;;;;;;5074538;28;20192;-76
2022/01/01 02:02:38;;;;;;;0.70;0.70;;;-0.70;99.90;;;;;;5054780;28;20215;-74
2022/01/01 02:05:04;;;;;;;0.80;0.80;;;-0.70;99.90;;;;;;5073299;28;20569;-77
2022/01/01 02:07:30;;;;;;;0.65;0.65;;;-0.70;99.90;;;;;;5055897;28;20201;-74
2022/01/01 02:09:57;;;;;;;0.70;0.70;;;-0.80;99.90;;;;;;5057096;28;20205;-74
2022/01/01 02:12:23;;;;;;;0.70;0.70;;;-0.80;99.90;;;;;;5073964;28;20702;-74
2022/01/01 02:17:30;;;;;;;0.90;0.90;;;-0.90;99.90;;;;;;5072106;28;20219;-76
2022/01/01 02:20:01;;;;;;;1.23;1.20;;;-0.80;99.90;;;;;;5055871;28;20230;-76
2022/01/01 02:22:44;;;;;;;0.65;0.65;;;-0.80;99.90;;;;;;5055996;28;20201;-76
2022/01/01 02:25:10;;;;;;;1.60;1.50;;;-0.80;99.90;;;;;;5055223;28;20315;-76
2022/01/01 02:27:36;;;;;;;0.80;0.80;;;-0.80;99.90;;;;;;5056187;28;20327;-76
2022/01/01 02:30:05;;;;;;;1.00;1.00;;;-0.80;99.90;;;;;;5055818;28;20205;-77
2022/01/01 02:32:30;;;;;;;0.68;0.68;;;-0.80;99.90;;;;;;5073280;28;20330;-74
2022/01/01 02:34:56;;;;;;;0.73;0.73;;;-0.90;99.90;;;;;;5054885;28;20287;-76
2022/01/01 02:37:22;;;;;;;0.50;0.50;;;-0.90;99.90;;;;;;5073286;28;20312;-76
2022/01/01 02:39:50;;;;;;;0.80;0.80;;;-0.90;99.90;;;;;;5073420;28;20244;-76
2022/01/01 02:42:20;;;;;;;0.70;0.70;;;-0.90;99.90;;;;;;5055079;28;20672;-76
2022/01/01 02:44:46;;;;;;;0.70;0.70;;;-1.00;99.90;;;;;;5073401;28;20205;-77
2022/01/01 02:47:12;;;;;;;0.70;0.70;;;-1.00;99.90;;;;;;5075003;28;20216;-77
2022/01/01 02:49:38;;;;;;;0.77;0.77;;;-1.10;99.90;;;;;;5073433;28;20196;-76
2022/01/01 02:52:04;;;;;;;1.50;1.40;;;-1.10;99.90;;;;;;5072367;28;20211;-76
2022/01/01 02:54:29;;;;;;;0.70;0.70;;;-1.20;99.90;;;;;;5055191;28;20611;-76
2022/01/01 02:56:55;;;;;;;0.70;0.70;;;-1.20;99.90;;;;;;5051917;28;20293;-76
2022/01/01 02:59:21;;;;;;;0.60;0.60;;;-1.20;99.90;;;;;;5067897;28;20567;-76
2022/01/01 03:01:46;;;;;;;0.73;0.73;;;-1.20;99.90;;;;;;5069662;28;20561;-76
2022/01/01 03:04:12;;;;;;;0.80;0.80;;;-1.20;99.90;;;;;;5072149;28;20201;-77
2022/01/01 03:06:38;;;;;;;0.73;0.73;;;-1.20;99.90;;;;;;5073214;28;20227;-74
2022/01/01 03:09:04;;;;;;;0.75;0.75;;;-1.30;99.90;;;;;;5074438;28;20196;-76
2022/01/01 03:11:29;;;;;;;0.70;0.70;;;-1.30;99.90;;;;;;5072348;28;20313;-75
2022/01/01 03:13:55;;;;;;;0.80;0.80;;;-1.40;99.90;;;;;;5073286;28;20741;-75
2022/01/01 03:16:22;;;;;;;0.73;0.73;;;-1.40;99.90;;;;;;5071725;28;20208;-75
2022/01/01 03:18:48;;;;;;;0.80;0.80;;;-1.50;99.90;;;;;;5054984;28;20269;-74
2022/01/01 03:21:13;;;;;;;0.80;0.80;;;-1.50;99.90;;;;;;5073416;28;20228;-75
2022/01/01 03:23:39;;;;;;;0.70;0.70;;;-1.60;99.90;;;;;;5072195;28;20664;-75
2022/01/01 03:26:05;;;;;;;0.70;0.70;;;-1.60;99.90;;;;;;5055655;28;20200;-75
2022/01/01 03:28:31;;;;;;;0.90;0.90;;;-1.60;99.90;;;;;;5054023;28;20214;-75
2022/01/01 03:30:57;;;;;;;0.80;0.80;;;-1.60;99.90;;;;;;5054958;28;20205;-74
2022/01/01 03:33:22;;;;;;;0.70;0.70;;;-1.60;99.90;;;;;;5071886;28;20209;-77
2022/01/01 03:35:48;;;;;;;0.80;0.80;;;-1.60;99.90;;;;;;5056061;28;20729;-74
2022/01/01 03:38:15;;;;;;;0.70;0.70;;;-1.60;99.90;;;;;;5071127;28;20259;-75
2022/01/01 03:40:41;;;;;;;0.90;0.90;;;-1.50;99.90;;;;;;5055283;28;20652;-77
2022/01/01 03:43:07;;;;;;;0.73;0.73;;;-1.50;99.90;;;;;;5054385;28;20235;-75
2022/01/01 03:45:32;;;;;;;0.70;0.70;;;-1.50;99.90;;;;;;5054119;28;20212;-75
2022/01/01 03:47:59;;;;;;;0.98;0.95;;;-1.60;99.90;;;;;;5054524;28;20213;-76
2022/01/01 03:50:24;;;;;;;0.68;0.68;;;-1.70;99.90;;;;;;5070915;28;20603;-76
2022/01/01 03:52:50;;;;;;;0.70;0.70;;;-1.70;99.90;;;;;;5054115;28;20212;-76
2022/01/01 03:55:16;;;;;;;0.70;0.70;;;-1.70;99.90;;;;;;5055311;28;20288;-76
2022/01/01 03:57:42;;;;;;;0.80;0.80;;;-1.80;99.90;;;;;;5070718;28;20196;-76
2022/01/01 04:00:11;;;;;;;0.80;0.80;;;-1.80;99.90;;;;;;5071287;28;20272;-76
2022/01/01 04:02:38;;;;;;;0.70;0.70;;;-1.80;99.90;;;;;;5052536;28;20209;-76
2022/01/01 04:05:04;;;;;;;0.70;0.70;;;-1.80;99.90;;;;;;5070711;28;20286;-76
2022/01/01 04:07:30;;;;;;;0.80;0.80;;;-1.80;99.90;;;;;;5053644;28;20294;-76
2022/01/01 04:09:57;;;;;;;0.88;0.88;;;-1.90;99.90;;;;;;5052799;28;20656;-77
2022/01/01 04:12:22;;;;;;;1.15;1.15;;;-1.90;99.90;;;;;;5053432;28;20197;-76
2022/01/01 04:14:48;;;;;;;0.80;0.80;;;-1.90;99.90;;;;;;5071802;28;20573;-77
2022/01/01 04:17:14;;;;;;;0.80;0.80;;;-2.00;99.90;;;;;;5035478;28;20194;-76
2022/01/01 04:19:40;;;;;;;0.80;0.80;;;-2.00;99.90;;;;;;5035333;28;20208;-77
2022/01/01 04:22:11;;;;;;;0.80;0.80;;;-2.10;99.90;;;;;;5072222;28;20197;-76
2022/01/01 04:24:38;;;;;;;0.65;0.65;;;-2.10;99.90;;;;;;5070595;28;20566;-76
2022/01/01 04:27:04;;;;;;;0.65;0.65;;;-2.20;99.90;;;;;;5071837;28;20204;-76
2022/01/01 04:29:31;;;;;;;0.70;0.70;;;-2.20;99.90;;;;;;5070450;28;20201;-77
2022/01/01 04:31:57;;;;;;;0.70;0.70;;;-2.20;99.90;;;;;;5054796;28;20212;-76
2022/01/01 04:34:23;;;;;;;0.70;0.70;;;-2.30;99.90;;;;;;5069194;28;20211;-76
2022/01/01 04:37:01;;;;;;;0.95;0.95;;;-2.30;99.90;;;;;;5066889;28;20197;-77
2022/01/01 04:39:27;;;;;;;0.88;0.88;;;-2.20;99.90;;;;;;5070846;28;20571;-76
2022/01/01 04:41:53;;;;;;;0.80;0.80;;;-2.20;99.90;;;;;;5071793;28;20228;-77
2022/01/01 04:44:18;;;;;;;0.75;0.75;;;-2.10;99.90;;;;;;5070510;28;20200;-76
2022/01/01 04:46:44;;;;;;;0.80;0.80;;;-2.20;99.90;;;;;;5053906;28;20231;-76
2022/01/01 04:49:10;;;;;;;0.70;0.70;;;-2.20;99.90;;;;;;5066102;28;20545;-76
2022/01/01 04:51:37;;;;;;;0.80;0.80;;;-2.30;99.90;;;;;;5070174;28;20200;-76
2022/01/01 04:54:02;;;;;;;0.80;0.80;;;-2.30;99.90;;;;;;5055790;28;20305;-77
2022/01/01 04:56:32;;;;;;;0.90;0.90;;;-2.30;99.90;;;;;;5070241;28;20228;-75
2022/01/01 04:58:58;;;;;;;0.60;0.60;;;-2.10;99.90;;;;;;5071781;28;20220;-76
2022/01/01 05:01:23;;;;;;;0.70;0.70;;;-2.20;99.90;;;;;;5055081;28;20242;-76
2022/01/01 05:03:49;;;;;;;0.80;0.80;;;-2.20;99.90;;;;;;5070458;28;20204;-76
2022/01/01 05:06:15;;;;;;;0.90;0.90;;;-2.30;99.90;;;;;;5071285;28;20208;-76
2022/01/01 05:08:40;;;;;;;0.77;0.77;;;-2.30;99.90;;;;;;5071226;28;20278;-77
2022/01/01 05:11:06;;;;;;;0.88;0.88;;;-2.40;99.90;;;;;;5054199;28;20209;-76
2022/01/01 05:13:32;;;;;;;0.80;0.80;;;-2.30;99.90;;;;;;5060406;28;20212;-77
2022/01/01 05:15:58;;;;;;;0.80;0.80;;;-2.30;99.90;;;;;;5070183;28;20216;-75
2022/01/01 05:18:24;;;;;;;0.85;0.85;;;-2.40;99.90;;;;;;5058133;28;20220;-75
2022/01/01 05:20:50;;;;;;;0.70;0.70;;;-2.40;99.90;;;;;;5070130;28;20683;-74
2022/01/01 05:23:16;;;;;;;0.88;0.88;;;-2.40;99.90;;;;;;5071222;28;20259;-77
2022/01/01 05:25:41;;;;;;;0.80;0.80;;;-2.50;99.90;;;;;;5070823;28;20205;-76
2022/01/01 05:28:07;;;;;;;0.70;0.70;;;-2.50;99.90;;;;;;5070132;28;20618;-77
2022/01/01 05:30:33;;;;;;;0.77;0.77;;;-2.50;99.90;;;;;;5070813;28;20216;-76
2022/01/01 05:32:59;;;;;;;0.80;0.80;;;-2.60;99.90;;;;;;5069900;28;20204;-76
2022/01/01 05:35:25;;;;;;;0.80;0.80;;;-2.50;99.90;;;;;;5063949;28;20718;-74
2022/01/01 05:37:51;;;;;;;1.00;1.00;;;-2.50;99.90;;;;;;5069883;28;20193;-76
2022/01/01 05:40:17;;;;;;;0.60;0.60;;;-2.50;99.90;;;;;;5069769;28;20262;-77
2022/01/01 05:42:43;;;;;;;0.80;0.80;;;-2.60;99.90;;;;;;5052159;28;20690;-77
2022/01/01 05:45:09;;;;;;;0.60;0.60;;;-2.60;99.90;;;;;;5051929;28;20213;-77
2022/01/01 05:47:35;;;;;;;0.70;0.70;;;-2.60;99.90;;;;;;5069727;28;20664;-76
2022/01/01 05:50:00;;;;;;;0.80;0.80;;;-2.60;99.90;;;;;;5051932;28;20232;-77
2022/01/01 05:52:26;;;;;;;0.80;0.80;;;-2.70;99.90;;;;;;5041045;28;20205;-76
2022/01/01 05:54:52;;;;;;;0.80;0.80;;;-2.70;99.90;;;;;;5074496;28;20189;-77
2022/01/01 05:57:18;;;;;;;0.75;0.75;;;-2.80;99.90;;;;;;5067102;28;20200;-77
2022/01/01 05:59:44;;;;;;;0.70;0.70;;;-2.80;99.90;;;;;;5057034;28;20208;-76
2022/01/01 06:02:10;;;;;;;0.77;0.77;;;-2.80;99.90;;;;;;5058118;28;20221;-76
2022/01/01 06:04:35;;;;;;;0.82;0.82;;;-2.90;99.90;;;;;;5071706;28;20208;-76
2022/01/01 06:07:02;;;;;;;0.80;0.80;;;-3.00;99.90;;;;;;5068031;28;20672;-76
2022/01/01 06:09:28;;;;;;;0.90;0.90;;;-3.10;99.90;;;;;;5058142;28;20258;-76
2022/01/01 06:11:54;;;;;;;0.70;0.70;;;-3.10;99.90;;;;;;5073154;28;20209;-76
2022/01/01 06:14:21;;;;;;;0.90;0.90;;;-3.10;99.90;;;;;;5073806;28;20580;-76
2022/01/01 06:16:47;;;;;;;0.80;0.80;;;-3.20;99.90;;;;;;5074030;28;20719;-76
2022/01/01 06:19:13;;;;;;;0.80;0.80;;;-3.20;99.90;;;;;;5056962;28;20570;-76
2022/01/01 06:21:39;;;;;;;0.90;0.90;;;-3.30;99.90;;;;;;5072670;28;20748;-76
2022/01/01 06:24:05;;;;;;;0.80;0.80;;;-3.40;99.90;;;;;;5056925;28;20192;-76
2022/01/01 06:26:31;;;;;;;0.90;0.90;;;-3.40;99.90;;;;;;5072475;28;20214;-76
2022/01/01 06:28:57;;;;;;;0.80;0.80;;;-3.50;99.90;;;;;;5073900;28;20201;-76
2022/01/01 06:31:23;;;;;;;0.90;0.90;;;-3.50;99.90;;;;;;5056567;28;20665;-76
2022/01/01 06:33:49;;;;;;;0.80;0.80;;;-3.70;99.90;;;;;;5072514;28;20261;-77
2022/01/01 06:36:17;;;;;;;0.80;0.80;;;-3.70;99.90;;;;;;5054489;28;20201;-76
2022/01/01 06:38:45;;;;;;;0.80;0.80;;;-3.80;99.90;;;;;;5043678;28;20218;-76
2022/01/01 06:41:11;;;;;;;0.85;0.85;;;-3.80;99.90;;;;;;5033552;28;20209;-76
2022/01/01 06:43:38;;;;;;;0.80;0.80;;;-3.80;99.90;;;;;;5032040;28;20564;-76
2022/01/01 06:46:08;;;;;;;0.90;0.90;;;-3.70;99.90;;;;;;5032556;28;20566;-77
2022/01/01 06:48:34;;;;;;;0.90;0.90;;;-3.60;99.90;;;;;;5032176;28;20213;-76
2022/01/01 06:51:00;;;;;;;0.80;0.80;;;-3.60;99.90;;;;;;5029187;28;20209;-76
2022/01/01 06:53:27;;;;;;;0.80;0.80;;;-3.60;99.90;;;;;;5032239;28;20206;-76
2022/01/01 06:55:52;;;;;;;0.80;0.80;;;-3.70;99.90;;;;;;5032725;28;20209;-76
2022/01/01 06:58:18;;;;;;;0.90;0.90;;;-3.70;99.90;;;;;;5028827;28;20297;-77
2022/01/01 07:00:44;;;;;;;0.82;0.82;;;-3.80;99.90;;;;;;5030892;28;20202;-76
2022/01/01 07:03:13;;;;;;;0.80;0.80;;;-3.80;99.90;;;;;;5032939;28;20214;-76
2022/01/01 07:05:38;;;;;;;0.80;0.80;;;-3.90;99.90;;;;;;5031965;28;20293;-76
2022/01/01 07:08:04;;;;;;;0.90;0.90;;;-3.90;99.90;;;;;;5032028;28;20289;-76
2022/01/01 07:10:30;;;;;;;0.80;0.80;;;-4.00;99.90;;;;;;5031758;28;20210;-76
2022/01/01 07:12:55;;;;;;;1.10;1.10;;;-4.00;99.90;;;;;;5032105;28;20213;-76
2022/01/01 07:15:24;;;;;;;0.90;0.90;;;-4.10;99.90;;;;;;5032656;28;20208;-76
2022/01/01 07:17:50;;;;;;;0.80;0.80;;;-4.20;99.90;;;;;;5031647;28;20206;-76
2022/01/01 07:20:16;;;;;;;1.77;1.67;;;-4.20;99.90;;;;;;5030470;28;20340;-76
2022/01/01 07:22:43;;;;;;;0.80;0.80;;;-4.20;99.90;;;;;;5030334;28;20206;-76
2022/01/01 07:25:10;;;;;;;1.73;1.13;;;-4.30;99.90;;;;;;5031774;28;20209;-76
2022/01/01 07:27:37;;;;;;;0.85;0.85;;;-4.30;99.90;;;;;;5030199;28;20198;-76
2022/01/01 07:30:05;;;;;;;0.88;0.88;;;-4.30;99.90;;;;;;5032717;28;20221;-76
2022/01/01 07:32:31;;;;;;;0.80;0.80;;;-4.30;99.90;;;;;;5031177;28;20230;-76
2022/01/01 07:34:57;;;;;;;0.80;0.80;;;-4.40;99.90;;;;;;5031563;28;20237;-76
2022/01/01 07:37:22;;;;;;;0.90;0.90;;;-4.40;99.90;;;;;;5029888;28;20198;-76
2022/01/01 07:39:48;;;;;;;0.70;0.70;;;-4.40;99.90;;;;;;5066409;28;20573;-76
2022/01/01 07:42:14;;;;;;;1.00;1.00;;;-4.50;99.90;;;;;;5072129;28;20197;-77
2022/01/01 07:44:43;;;;;;;1.40;1.30;;;-4.50;99.90;;;;;;5054745;28;20595;-77
2022/01/01 07:47:08;;;;;;;0.87;0.87;;;-4.50;99.90;;;;;;5054039;28;20207;-76
2022/01/01 07:49:34;;;;;;;0.90;0.90;;;-4.50;99.90;;;;;;5070708;28;20272;-77
2022/01/01 07:52:00;;;;;;;0.80;0.80;;;-4.60;99.90;;;;;;5070997;28;20205;-76
2022/01/01 07:54:26;;;;;;;0.83;0.83;;;-4.60;99.90;;;;;;5071862;28;20227;-76
2022/01/01 07:56:52;;;;;;;0.90;0.90;;;-4.60;99.90;;;;;;5050032;28;20197;-76
2022/01/01 07:59:17;;;;;;;0.80;0.80;;;-4.70;99.90;;;;;;5066536;28;20214;-77
2022/01/01 08:01:43;;;;;;;6.63;2.70;;;-4.70;99.90;;;;;;5071769;28;20207;-78
2022/01/01 08:04:10;;;;;;;0.90;0.90;;;-4.60;99.90;;;;;;5070890;28;20215;-76
2022/01/01 08:06:36;;;;;;;0.90;0.90;;;-4.70;99.90;;;;;;5071589;28;20208;-76
2022/01/01 08:09:04;;;;;;;0.90;0.90;;;-4.70;99.90;;;;;;5070850;28;20197;-77
2022/01/01 08:11:30;;;;;;;1.00;1.00;;;-4.70;99.90;;;;;;5053563;28;20204;-76
2022/01/01 08:13:56;;;;;;;0.95;0.95;;;-4.60;99.90;;;;;;5071738;28;20193;-77
2022/01/01 08:16:22;;;;;;;0.93;0.93;;;-4.60;99.90;;;;;;5053978;28;20224;-77
2022/01/01 08:18:48;;;;;;;1.27;1.17;;;-4.60;99.90;;;;;;5070561;28;20262;-77
2022/01/01 08:21:13;;;;;;;0.93;0.93;;;-4.50;99.90;;;;;;5071511;28;20203;-76
2022/01/01 08:23:39;;;;;;;0.80;0.80;;;-4.50;99.90;;;;;;5070399;28;20284;-77
2022/01/01 08:26:05;;;;;;;4.07;1.15;;;-4.50;99.90;;;;;;5052696;28;20192;-77
2022/01/01 08:28:30;;;;;;;1.00;1.00;;;-4.50;99.90;;;;;;5070706;28;20239;-77
2022/01/01 08:30:56;;;;;;;0.82;0.82;;;-4.50;99.90;;;;;;5071645;28;20197;-76
2022/01/01 08:33:22;;;;;;;0.90;0.90;;;-4.50;99.90;;;;;;5071320;28;20620;-76
2022/01/01 08:35:48;;;;;;;0.90;0.90;;;-4.50;99.90;;;;;;5053840;28;20200;-76
2022/01/01 08:38:14;;;;;;;0.90;0.90;;;-4.40;99.90;;;;;;5070616;28;20220;-76
2022/01/01 08:40:40;;;;;;;0.90;0.90;;;-4.40;99.90;;;;;;5070185;28;20200;-76
2022/01/01 08:43:06;;;;;;;0.80;0.80;;;-4.30;99.90;;;;;;5054431;28;20212;-76
2022/01/01 08:45:37;;;;;;;0.80;0.80;;;-4.20;99.90;;;;;;5071074;28;20204;-76
2022/01/01 08:48:04;;;;;;;0.80;0.80;;;-4.20;99.90;;;;;;5071582;28;20285;-78
2022/01/01 08:50:30;;;;;;;0.80;0.80;;;-4.20;99.90;;;;;;5071267;28;20698;-77
2022/01/01 08:52:57;;;;;;;0.82;0.82;;;-4.20;99.90;;;;;;5054418;28;20208;-77
2022/01/01 08:55:24;;;;;;;0.80;0.80;;;-4.20;99.90;;;;;;5069991;28;20201;-76
2022/01/01 08:57:52;;;;;;;0.82;0.82;;;-4.20;99.90;;;;;;5070177;28;20570;-78
2022/01/01 09:00:18;;;;;;;0.93;0.93;;;-4.20;99.90;;;;;;5052971;28;20296;-77
2022/01/01 09:02:46;;;;;;;0.90;0.90;;;-4.20;99.90;;;;;;5053131;28;20393;-77
2022/01/01 09:05:14;;;;;;;0.98;0.98;;;-4.10;99.90;;;;;;5070177;28;20205;-77
2022/01/01 09:07:40;;;;;;;0.80;0.80;;;-4.10;99.90;;;;;;5071112;28;20672;-77
2022/01/01 09:10:07;;;;;;;0.80;0.80;;;-4.10;99.90;;;;;;5053777;28;20205;-77
2022/01/01 09:12:32;;;;;;;1.08;1.08;;;-4.00;99.90;;;;;;5070380;28;20254;-77
2022/01/01 09:15:01;;;;;;;0.90;0.88;;;-3.90;99.90;;;;;;5052449;28;20602;-78
2022/01/01 09:17:27;;;;;;;0.77;0.77;;;-3.90;99.90;;;;;;5069936;28;20203;-76
2022/01/01 09:19:52;;;;;;;0.80;0.80;;;-3.80;99.90;;;;;;5051976;28;20292;-76
2022/01/01 09:22:20;;;;;;;0.90;0.90;;;-3.70;99.90;;;;;;5071119;28;20200;-77
2022/01/01 09:24:49;;;;;;;0.90;0.90;;;-3.60;99.90;;;;;;5070943;28;20661;-76
2022/01/01 09:27:15;;;;;;;0.80;0.80;;;-3.50;99.90;;;;;;5069440;28;20208;-77
2022/01/01 09:29:40;;;;;;;0.90;0.90;;;-3.40;99.90;;;;;;5057786;28;20659;-76
2022/01/01 09:32:06;;;;;;;1.50;1.40;;;-3.30;99.90;;;;;;5057263;28;20581;-77
2022/01/01 09:34:32;;;;;;;2.15;1.85;;;-3.30;99.90;;;;;;5057620;28;20299;-77
2022/01/01 09:37:01;;;;;;;1.83;1.73;;;-3.20;99.90;;;;;;5056806;28;20342;-76
2022/01/01 09:39:30;;;;;;;0.73;0.73;;;-3.10;99.90;;;;;;5073252;28;20283;-77
2022/01/01 09:41:56;;;;;;;0.80;0.80;;;-3.00;99.90;;;;;;5057611;28;20287;-76
2022/01/01 09:44:25;;;;;;;0.90;0.90;;;-2.90;99.90;;;;;;5074324;28;20269;-77
2022/01/01 09:46:51;;;;;;;0.88;0.88;;;-2.80;99.90;;;;;;5074692;28;20678;-77
2022/01/01 09:49:21;;;;;;;2.42;2.25;;;-2.80;99.90;;;;;;5056436;28;20201;-77
2022/01/01 09:51:46;;;;;;;0.80;0.80;;;-2.70;99.90;;;;;;5073438;28;20546;-77
2022/01/01 09:54:13;;;;;;;0.80;0.80;;;-2.60;99.90;;;;;;5074367;28;20209;-77
2022/01/01 09:56:39;;;;;;;1.23;1.13;;;-2.60;99.90;;;;;;5053067;28;20281;-77
2022/01/01 09:59:05;;;;;;;0.85;0.85;;;-2.50;99.90;;;;;;5066000;28;20595;-77
2022/01/01 10:01:32;;;;;;;0.80;0.80;;;-2.50;99.90;;;;;;5072856;28;20288;-77
2022/01/01 10:03:59;;;;;;;0.80;0.80;;;-2.40;99.90;;;;;;5073501;28;20203;-77
2022/01/01 10:06:29;;;;;;;0.70;0.70;;;-2.40;99.90;;;;;;5056211;28;20580;-76
2022/01/01 10:08:58;;;;;;;0.80;0.80;;;-2.30;99.90;;;;;;5055313;28;20220;-77
2022/01/01 10:11:24;;;;;;;0.85;0.85;;;-2.20;99.90;;;;;;5056061;28;20253;-77
2022/01/01 10:13:50;;;;;;;1.27;1.10;;;-2.20;99.90;;;;;;5072983;28;20611;-76
2022/01/01 10:16:16;;;;;;;0.68;0.68;;;-2.10;99.90;;;;;;5055541;28;20196;-77
2022/01/01 10:18:45;;;;;;;0.73;0.73;;;-2.00;99.90;;;;;;5055820;28;20251;-77
2022/01/01 10:21:16;;;;;;;0.80;0.80;;;-2.00;99.90;;;;;;5054914;28;20316;-75
2022/01/01 10:23:58;;;;;;;0.70;0.70;;;-1.90;99.90;;;;;;5055798;28;20204;-76
2022/01/01 10:29:14;;;;;;;0.90;0.90;;;-1.80;99.90;;;;;;5073987;28;20230;-77
2022/01/01 10:32:08;;;;;;;0.70;0.70;;;-1.70;99.90;;;;;;5073654;28;20678;-77
2022/01/01 10:34:35;;;;;;;0.80;0.80;;;-1.60;99.90;;;;;;5072363;28;20724;-77
2022/01/01 10:37:08;;;;;;;0.77;0.77;;;-1.50;99.90;;;;;;5057830;28;20206;-77
2022/01/01 10:39:48;;;;;;;0.73;0.73;;;-1.50;99.90;;;;;;5063433;28;20228;-77
2022/01/01 10:42:17;;;;;;;0.90;0.90;;;-1.60;99.90;;;;;;5073625;28;20279;-77
2022/01/01 10:44:47;;;;;;;1.30;1.25;;;-1.50;99.90;;;;;;5072454;28;20208;-76
2022/01/01 10:47:21;;;;;;;0.73;0.73;;;-1.50;99.90;;;;;;5055492;28;20207;-77
2022/01/01 10:50:03;;;;;;;0.70;0.70;;;-1.50;99.90;;;;;;5056675;28;20209;-76
2022/01/01 10:52:29;;;;;;;0.70;0.70;;;-1.40;99.90;;;;;;5054984;28;20216;-76
2022/01/01 10:54:56;;;;;;;0.73;0.73;;;-1.40;99.90;;;;;;5072138;28;20688;-76
2022/01/01 10:57:38;;;;;;;3.75;1.42;;;-1.40;99.90;;;;;;5055186;28;20308;-76
2022/01/01 11:00:20;;;;;;;0.80;0.80;;;-1.40;99.90;;;;;;5072949;28;20211;-77
2022/01/01 11:03:04;;;;;;;0.75;0.75;;;-1.30;99.90;;;;;;5072274;28;20671;-77
2022/01/01 11:05:39;;;;;;;0.77;0.77;;;-1.30;99.90;;;;;;5073277;28;20644;-77
2022/01/01 11:08:06;;;;;;;0.70;0.70;;;-1.30;99.90;;;;;;5072219;28;20818;-78
2022/01/01 11:10:33;;;;;;;0.70;0.70;;;-1.20;99.90;;;;;;5049825;28;20237;-77
2022/01/01 11:13:01;;;;;;;0.70;0.70;;;-1.20;99.90;;;;;;5054962;28;20220;-77
2022/01/01 11:15:27;;;;;;;0.70;0.70;;;-1.30;99.90;;;;;;5072763;28;20254;-77
2022/01/01 11:17:56;;;;;;;0.70;0.70;;;-1.30;99.90;;;;;;5055142;28;20197;-78
2022/01/01 11:20:23;;;;;;;0.60;0.60;;;-1.30;99.90;;;;;;5054701;28;20648;-78
2022/01/01 11:22:49;;;;;;;0.60;0.60;;;-1.30;99.90;;;;;;5071725;28;20667;-77
2022/01/01 11:25:17;;;;;;;0.60;0.60;;;-1.30;99.90;;;;;;5055880;28;20211;-77
2022/01/01 11:27:43;;;;;;;0.73;0.73;;;-1.30;99.90;;;;;;5071616;28;20212;-77
2022/01/01 11:30:13;;;;;;;0.75;0.75;;;-1.30;99.90;;;;;;5055147;28;20659;-77
2022/01/01 11:32:53;;;;;;;0.80;0.80;;;-1.30;99.90;;;;;;5057972;28;20200;-76
2022/01/01 11:35:32;;;;;;;0.70;0.70;;;-1.30;99.90;;;;;;5071306;28;20668;-78
2022/01/01 11:38:13;;;;;;;0.70;0.70;;;-1.30;99.90;;;;;;5071494;28;20631;-78
2022/01/01 11:40:56;;;;;;;0.70;0.70;;;-1.20;99.90;;;;;;5071397;28;20288;-78
2022/01/01 11:43:51;;;;;;;0.73;0.73;;;-1.30;99.90;;;;;;5071436;28;20220;-77
2022/01/01 11:46:24;;;;;;;0.70;0.70;;;-1.30;99.90;;;;;;5071345;28;20228;-76
2022/01/01 11:48:55;;;;;;;0.80;0.80;;;-1.20;99.90;;;;;;5054346;28;20796;-76
2022/01/01 11:51:33;;;;;;;0.70;0.70;;;-1.20;99.90;;;;;;5071338;28;20212;-76
2022/01/01 11:54:15;;;;;;;0.70;0.70;;;-1.20;99.90;;;;;;5055285;28;20208;-77
2022/01/01 11:56:49;;;;;;;0.70;0.70;;;-1.20;99.90;;;;;;5051281;28;20212;-76
2022/01/01 11:59:18;;;;;;;0.70;0.70;;;-1.20;99.90;;;;;;5067451;28;20204;-76
2022/01/01 12:01:44;;;;;;;0.80;0.80;;;-1.10;99.90;;;;;;5071896;28;20205;-76
2022/01/01 12:04:24;;;;;;;0.80;0.80;;;-1.10;99.90;;;;;;5071496;28;20582;-76
2022/01/01 12:07:13;;;;;;;0.60;0.60;;;-1.10;99.90;;;;;;5070980;28;20287;-77
2022/01/01 12:09:58;;;;;;;0.80;0.80;;;-1.10;99.90;;;;;;5032515;28;20260;-78
2022/01/01 12:12:45;;;;;;;0.70;0.70;;;-1.10;99.90;;;;;;5069726;28;20596;-76
2022/01/01 12:15:19;;;;;;;0.80;0.80;;;-1.10;99.90;;;;;;5071096;28;20209;-77
2022/01/01 12:18:15;;;;;;;0.60;0.60;;;-1.00;99.90;;;;;;5037210;28;20208;-78
2022/01/01 12:20:50;;;;;;;0.80;0.80;;;-1.10;99.90;;;;;;5046197;28;20679;-77
2022/01/01 12:23:26;;;;;;;0.80;0.80;;;-1.10;99.90;;;;;;5053095;28;20224;-77
2022/01/01 12:25:56;;;;;;;0.70;0.70;;;-1.00;99.90;;;;;;5037352;28;20212;-77
2022/01/01 12:28:31;;;;;;;0.80;0.80;;;-1.00;99.90;;;;;;5052800;28;20587;-76
2022/01/01 12:31:10;;;;;;;0.80;0.80;;;-1.00;99.90;;;;;;5072305;28;20667;-77
2022/01/01 12:33:43;;;;;;;0.75;0.75;;;-1.00;99.90;;;;;;5052471;28;20216;-78
2022/01/01 12:36:15;;;;;;;0.95;0.93;;;-1.00;99.90;;;;;;5052485;28;20736;-78
2022/01/01 12:38:50;;;;;;;1.40;1.30;;;-1.10;99.90;;;;;;5044121;28;20689;-78
2022/01/01 12:41:21;;;;;;;0.70;0.70;;;-1.10;99.90;;;;;;5031968;28;20284;-77
2022/01/01 12:43:50;;;;;;;0.90;0.90;;;-1.00;99.90;;;;;;5030912;28;20680;-77
2022/01/01 12:46:21;;;;;;;0.90;0.90;;;-1.00;99.90;;;;;;5030717;28;20206;-77
2022/01/01 12:48:47;;;;;;;0.70;0.70;;;-1.00;99.90;;;;;;5029548;28;20516;-77
2022/01/01 12:51:16;;;;;;;0.70;0.70;;;-1.00;99.90;;;;;;5030561;28;20645;-76
2022/01/01 12:53:47;;;;;;;0.60;0.60;;;-1.00;99.90;;;;;;5030704;28;20354;-77
2022/01/01 12:56:16;;;;;;;0.63;0.63;;;-1.00;99.90;;;;;;5029539;28;20210;-77